createdAt,value
2022-10-01T00:01:08.921Z,75.25
2022-10-01T00:06:17.166Z,75.10
2022-10-01T00:11:21.964Z,75.33
2022-10-01T00:16:26.982Z,74.69
2022-10-01T00:21:33.245Z,75.16
2022-10-01T00:26:37.647Z,76.66
2022-10-01T00:31:40.651Z,76.20
2022-10-01T00:36:45.203Z,76.45
2022-10-01T00:41:48.011Z,76.85
2022-10-01T00:46:51.340Z,76.89
2022-10-01T00:51:58.986Z,78.03
2022-10-01T00:57:04.605Z,77.45
2022-10-01T01:02:07.463Z,77.52
2022-10-01T01:07:12.762Z,78.49
2022-10-01T01:12:27.656Z,78.81
2022-10-01T01:17:36.202Z,78.55
2022-10-01T01:22:48.946Z,78.49
2022-10-01T01:28:05.376Z,79.32
2022-10-01T01:33:14.012Z,78.56
2022-10-01T01:38:21.862Z,79.55
2022-10-01T01:43:31.285Z,78.60
2022-10-01T01:48:36.376Z,78.34
2022-10-01T01:53:39.485Z,78.44
2022-10-01T01:58:44.089Z,78.46
2022-10-01T02:03:46.840Z,78.89
2022-10-01T02:08:57.284Z,79.73
2022-10-01T02:14:13.329Z,80.07
2022-10-01T02:19:24.854Z,79.97
2022-10-01T02:24:38.430Z,79.76
2022-10-01T02:29:46.107Z,79.19
2022-10-01T02:34:51.083Z,79.69
2022-10-01T02:39:56.490Z,79.85
2022-10-01T02:45:02.676Z,79.76
2022-10-01T02:50:07.559Z,80.12
2022-10-01T02:55:13.231Z,79.17
2022-10-01T03:00:21.630Z,79.89
2022-10-01T03:05:24.393Z,79.35
2022-10-01T03:10:27.133Z,78.81
2022-10-01T03:15:31.260Z,79.06
2022-10-01T03:20:34.038Z,78.12
2022-10-01T03:25:36.822Z,77.81
2022-10-01T03:30:40.904Z,76.57
2022-10-01T03:35:43.703Z,76.62
2022-10-01T03:40:46.836Z,76.77
2022-10-01T03:45:51.091Z,78.15
2022-10-01T03:50:55.597Z,78.76
2022-10-01T03:55:58.612Z,80.84
2022-10-01T04:01:03.098Z,83.34
2022-10-01T04:06:06.002Z,86.36
2022-10-01T04:11:09.318Z,88.04
2022-10-01T04:16:13.695Z,89.13
2022-10-01T04:21:16.573Z,90.49
2022-10-01T04:26:19.880Z,91.16
2022-10-01T04:31:26.949Z,92.19
2022-10-01T04:36:31.607Z,94.85
2022-10-01T04:41:34.622Z,95.07
2022-10-01T04:46:39.921Z,94.51
2022-10-01T04:51:42.766Z,95.94
2022-10-01T04:56:45.569Z,95.09
2022-10-01T05:01:49.805Z,95.75
2022-10-01T05:06:52.607Z,96.56
2022-10-01T05:11:55.721Z,96.71
2022-10-01T05:16:59.896Z,97.39
2022-10-01T05:22:02.777Z,99.49
2022-10-01T05:27:13.308Z,99.53
2022-10-01T05:32:17.779Z,99.74
2022-10-01T05:37:20.610Z,100.00
2022-10-01T05:42:23.411Z,100.00
2022-10-01T05:47:27.577Z,100.00
2022-10-01T05:52:30.870Z,100.00
2022-10-01T05:57:34.301Z,100.00
2022-10-01T06:02:41.301Z,100.00
2022-10-01T06:07:44.222Z,100.00
2022-10-01T06:12:48.485Z,100.00
2022-10-01T06:17:52.574Z,100.00
2022-10-01T06:22:57.002Z,100.00
2022-10-01T06:28:00.883Z,100.00
2022-10-01T06:33:06.959Z,100.00
2022-10-01T06:38:10.478Z,100.00
2022-10-01T06:43:13.309Z,100.00
2022-10-01T06:48:19.937Z,100.00
2022-10-01T06:53:22.761Z,100.00
2022-10-01T06:58:27.226Z,100.00
2022-10-01T07:03:32.108Z,100.00
2022-10-01T07:08:44.151Z,100.00
2022-10-01T07:13:50.042Z,100.00
2022-10-01T07:18:57.879Z,100.00
2022-10-01T07:24:00.876Z,100.00
2022-10-01T07:29:04.636Z,100.00
2022-10-01T07:34:08.978Z,100.00
2022-10-01T07:39:12.225Z,100.00
2022-10-01T07:44:15.016Z,100.00
2022-10-01T07:49:19.388Z,100.00
2022-10-01T07:54:25.292Z,100.00
2022-10-01T07:59:28.536Z,100.00
2022-10-01T08:04:50.369Z,100.00
2022-10-01T08:09:53.337Z,100.00
2022-10-01T08:14:56.824Z,100.00
2022-10-01T08:20:01.364Z,100.00
2022-10-01T08:25:04.700Z,100.00
2022-10-01T08:30:09.035Z,100.00
2022-10-01T08:35:13.523Z,100.00
2022-10-01T08:40:17.401Z,100.00
2022-10-01T08:45:26.635Z,100.00
2022-10-01T08:50:48.211Z,100.00
2022-10-01T08:55:53.047Z,100.00
2022-10-01T09:00:55.878Z,100.00
2022-10-01T09:06:11.941Z,100.00
2022-10-01T09:11:29.265Z,100.00
2022-10-01T09:16:39.200Z,100.00
2022-10-01T09:21:56.507Z,100.00
2022-10-01T09:26:59.326Z,100.00
2022-10-01T09:32:06.306Z,100.00
2022-10-01T09:37:20.130Z,100.00
2022-10-01T09:42:27.474Z,100.00
2022-10-01T09:47:34.333Z,100.00
2022-10-01T09:52:40.760Z,100.00
2022-10-01T09:57:48.693Z,100.00
2022-10-01T10:02:54.112Z,100.00
2022-10-01T10:08:01.892Z,100.00
2022-10-01T10:13:18.376Z,100.00
2022-10-01T10:18:29.029Z,100.00
2022-10-01T10:23:34.289Z,100.00
2022-10-01T10:28:44.087Z,100.00
2022-10-01T10:33:51.144Z,100.00
2022-10-01T10:38:56.825Z,100.00
2022-10-01T10:44:03.687Z,100.00
2022-10-01T10:49:14.020Z,100.00
2022-10-01T10:54:29.217Z,100.00
2022-10-01T10:59:34.255Z,100.00
2022-10-01T11:04:43.853Z,100.00
2022-10-01T11:10:05.262Z,100.00
2022-10-01T11:15:21.757Z,100.00
2022-10-01T11:20:37.025Z,100.00
2022-10-01T11:25:49.184Z,99.75
2022-10-01T11:30:59.745Z,97.26
2022-10-01T11:36:06.755Z,97.74
2022-10-01T11:41:30.676Z,95.03
2022-10-01T11:46:42.552Z,90.88
2022-10-01T11:51:53.903Z,87.39
2022-10-01T11:57:25.986Z,86.79
2022-10-01T12:02:36.727Z,84.73
2022-10-01T12:07:47.531Z,85.91
2022-10-01T12:12:57.851Z,86.23
2022-10-01T12:18:07.090Z,84.46
2022-10-01T12:23:17.876Z,84.71
2022-10-01T12:28:27.694Z,86.43
2022-10-01T12:33:48.994Z,83.62
2022-10-01T12:39:05.923Z,83.89
2022-10-01T12:44:30.061Z,88.74
2022-10-01T12:49:38.374Z,87.25
2022-10-01T12:55:02.559Z,84.54
2022-10-01T13:00:12.373Z,84.55
2022-10-01T13:05:23.951Z,86.15
2022-10-01T13:10:48.729Z,88.37
2022-10-01T13:15:59.788Z,91.79
2022-10-01T13:21:10.211Z,98.87
2022-10-01T13:26:18.290Z,100.00
2022-10-01T13:31:35.040Z,100.00
2022-10-01T13:36:38.347Z,100.00
2022-10-01T13:41:41.361Z,100.00
2022-10-01T13:46:53.169Z,100.00
2022-10-01T13:51:56.940Z,100.00
2022-10-01T13:57:09.131Z,100.00
2022-10-01T14:02:32.027Z,100.00
2022-10-01T14:07:40.303Z,100.00
2022-10-01T14:13:03.640Z,100.00
2022-10-01T14:18:15.525Z,100.00
2022-10-01T14:23:24.588Z,100.00
2022-10-01T14:28:38.200Z,100.00
2022-10-01T14:33:59.775Z,100.00
2022-10-01T14:39:14.160Z,100.00
2022-10-01T14:44:21.892Z,100.00
2022-10-01T14:49:28.396Z,100.00
2022-10-01T14:54:35.778Z,100.00
2022-10-01T14:59:41.714Z,100.00
2022-10-01T15:04:48.256Z,100.00
2022-10-01T15:09:52.353Z,100.00
2022-10-01T15:14:55.774Z,100.00
2022-10-01T15:20:00.270Z,100.00
2022-10-01T15:25:03.510Z,100.00
2022-10-01T15:30:14.775Z,100.00
2022-10-01T15:35:22.033Z,100.00
2022-10-01T15:40:29.533Z,100.00
2022-10-01T15:45:32.313Z,100.00
2022-10-01T15:50:39.158Z,100.00
2022-10-01T15:55:44.466Z,100.00
2022-10-01T16:00:58.570Z,100.00
2022-10-01T16:06:04.038Z,100.00
2022-10-01T16:11:17.820Z,100.00
2022-10-01T16:16:27.183Z,100.00
2022-10-01T16:21:41.252Z,100.00
2022-10-01T16:26:45.187Z,100.00
2022-10-01T16:31:48.128Z,100.00
2022-10-01T16:36:52.340Z,100.00
2022-10-01T16:42:19.118Z,100.00
2022-10-01T16:47:17.966Z,100.00
2022-10-01T16:52:22.162Z,100.00
2022-10-01T16:57:24.846Z,100.00
2022-10-01T17:02:27.731Z,100.00
2022-10-01T17:07:31.844Z,100.00
2022-10-01T17:12:34.870Z,100.00
2022-10-01T17:17:37.692Z,100.00
2022-10-01T17:22:42.840Z,100.00
2022-10-01T17:27:45.792Z,100.00
2022-10-01T17:32:48.650Z,100.00
2022-10-01T17:37:52.847Z,100.00
2022-10-01T17:42:55.581Z,100.00
2022-10-01T17:47:58.319Z,100.00
2022-10-01T17:53:02.719Z,100.00
2022-10-01T17:58:06.723Z,100.00
2022-10-01T18:03:09.782Z,100.00
2022-10-01T18:08:13.910Z,100.00
2022-10-01T18:13:16.935Z,100.00
2022-10-01T18:19:51.342Z,100.00
2022-10-01T18:23:44.029Z,100.00
2022-10-01T18:28:47.196Z,100.00
2022-10-01T18:33:52.321Z,100.00
2022-10-01T18:39:04.275Z,100.00
2022-10-01T18:44:11.285Z,100.00
2022-10-01T18:49:28.098Z,100.00
2022-10-01T18:54:47.299Z,100.00
2022-10-01T19:00:02.541Z,100.00
2022-10-01T19:05:36.424Z,100.00
2022-10-01T19:10:43.034Z,100.00
2022-10-01T19:16:00.498Z,100.00
2022-10-01T19:21:15.195Z,100.00
2022-10-01T19:26:24.902Z,100.00
2022-10-01T19:31:37.310Z,100.00
2022-10-01T19:36:45.301Z,100.00
2022-10-01T19:41:54.247Z,100.00
2022-10-01T19:47:03.089Z,100.00
2022-10-01T19:52:13.336Z,100.00
2022-10-01T19:57:23.402Z,100.00
2022-10-01T20:02:35.147Z,100.00
2022-10-01T20:07:46.780Z,100.00
2022-10-01T20:13:13.556Z,100.00
2022-10-01T20:18:28.961Z,100.00
2022-10-01T20:23:42.025Z,100.00
2022-10-01T20:28:54.579Z,100.00
2022-10-01T20:34:03.863Z,100.00
2022-10-01T20:39:15.765Z,100.00
2022-10-01T20:44:25.615Z,100.00
2022-10-01T20:49:33.485Z,100.00
2022-10-01T20:54:40.033Z,100.00
2022-10-01T20:59:46.932Z,100.00
2022-10-01T21:04:55.219Z,100.00
2022-10-01T21:10:03.053Z,100.00
2022-10-01T21:15:13.458Z,100.00
2022-10-01T21:20:30.530Z,100.00
2022-10-01T21:25:47.311Z,100.00
2022-10-01T21:31:02.958Z,100.00
2022-10-01T21:36:11.907Z,100.00
2022-10-01T21:41:48.188Z,100.00
2022-10-01T21:47:00.751Z,100.00
2022-10-01T21:52:13.838Z,100.00
2022-10-01T21:57:43.282Z,100.00
2022-10-01T22:02:59.956Z,100.00
2022-10-01T22:08:16.080Z,100.00
2022-10-01T22:13:21.785Z,100.00
2022-10-01T22:18:35.247Z,100.00
2022-10-01T22:23:39.219Z,100.00
2022-10-01T22:28:45.006Z,100.00
2022-10-01T22:33:55.341Z,100.00
2022-10-01T22:39:03.261Z,100.00
2022-10-01T22:44:13.740Z,100.00
2022-10-01T22:49:32.175Z,100.00
2022-10-01T22:54:45.246Z,100.00
2022-10-01T23:00:01.838Z,100.00
2022-10-01T23:05:16.785Z,100.00
2022-10-01T23:10:26.102Z,100.00
2022-10-01T23:15:37.301Z,100.00
2022-10-01T23:20:50.706Z,100.00
2022-10-01T23:26:08.609Z,100.00
2022-10-01T23:31:21.758Z,100.00
2022-10-01T23:36:36.442Z,100.00
2022-10-01T23:41:44.839Z,100.00
2022-10-01T23:46:52.124Z,100.00
2022-10-01T23:52:04.357Z,100.00
2022-10-01T23:57:12.624Z,100.00
